createdAt,value
2018-04-23T00:01:09.559Z,17.39
2018-04-23T00:03:37.891Z,17.38
2018-04-23T00:06:06.241Z,17.37
2018-04-23T00:08:34.569Z,17.39
2018-04-23T00:11:02.933Z,17.34
2018-04-23T00:13:31.260Z,17.30
2018-04-23T00:15:59.598Z,17.23
2018-04-23T00:18:27.942Z,17.21
2018-04-23T00:20:56.313Z,17.22
2018-04-23T00:23:24.641Z,17.35
2018-04-23T00:25:52.977Z,17.39
2018-04-23T00:28:21.294Z,17.32
2018-04-23T00:30:49.645Z,17.43
2018-04-23T00:33:17.963Z,17.46
2018-04-23T00:35:46.302Z,17.49
2018-04-23T00:38:14.663Z,17.43
2018-04-23T00:40:42.986Z,17.43
2018-04-23T00:43:11.344Z,17.25
2018-04-23T00:45:39.680Z,17.25
2018-04-23T00:48:08.033Z,17.14
2018-04-23T00:50:36.366Z,17.10
2018-04-23T00:53:16.483Z,17.14
2018-04-23T00:55:44.806Z,17.10
2018-04-23T00:58:13.151Z,17.08
2018-04-23T01:00:41.500Z,17.00
2018-04-23T01:03:09.848Z,16.95
2018-04-23T01:05:38.170Z,16.89
2018-04-23T01:08:06.524Z,16.90
2018-04-23T01:10:34.859Z,16.95
2018-04-23T01:13:03.203Z,17.01
2018-04-23T01:15:31.543Z,17.05
2018-04-23T01:17:59.909Z,17.12
2018-04-23T01:20:28.230Z,17.17
2018-04-23T01:22:56.588Z,17.11
2018-04-23T01:25:24.927Z,17.09
2018-04-23T01:27:53.460Z,17.04
2018-04-23T01:30:21.857Z,17.06
2018-04-23T01:32:50.188Z,16.97
2018-04-23T01:35:18.583Z,17.00
2018-04-23T01:37:46.917Z,16.93
2018-04-23T01:40:15.261Z,16.93
2018-04-23T01:42:43.569Z,16.94
2018-04-23T01:45:11.919Z,16.91
2018-04-23T01:47:40.243Z,16.87
2018-04-23T01:50:08.623Z,16.84
2018-04-23T01:52:37.834Z,16.80
2018-04-23T01:55:06.176Z,16.77
2018-04-23T01:57:34.503Z,16.73
2018-04-23T02:00:02.882Z,16.59
2018-04-23T02:02:33.069Z,16.47
2018-04-23T02:05:01.409Z,16.40
2018-04-23T02:07:29.745Z,16.34
2018-04-23T02:09:59.149Z,16.33
2018-04-23T02:12:27.468Z,16.30
2018-04-23T02:14:55.787Z,16.33
2018-04-23T02:17:24.145Z,16.24
2018-04-23T02:19:52.464Z,16.14
2018-04-23T02:22:20.817Z,16.15
2018-04-23T02:24:49.126Z,16.07
2018-04-23T02:27:17.463Z,16.01
2018-04-23T02:29:45.785Z,15.94
2018-04-23T02:32:14.120Z,15.91
2018-04-23T02:34:42.443Z,15.96
2018-04-23T02:37:10.777Z,15.91
2018-04-23T02:39:39.118Z,15.88
2018-04-23T02:42:07.459Z,15.94
2018-04-23T02:44:35.784Z,15.85
2018-04-23T02:47:04.126Z,15.90
2018-04-23T02:49:32.447Z,15.79
2018-04-23T02:52:00.797Z,15.79
2018-04-23T02:54:29.225Z,15.77
2018-04-23T02:56:57.574Z,15.73
2018-04-23T02:59:25.904Z,15.82
2018-04-23T03:01:54.223Z,15.83
2018-04-23T03:04:22.591Z,15.78
2018-04-23T03:06:50.918Z,15.71
2018-04-23T03:09:19.262Z,15.74
2018-04-23T03:11:47.590Z,15.71
2018-04-23T03:14:15.973Z,15.66
2018-04-23T03:16:44.283Z,15.58
2018-04-23T03:19:12.626Z,15.49
2018-04-23T03:21:40.944Z,15.53
2018-04-23T03:24:09.275Z,15.54
2018-04-23T03:26:37.621Z,15.56
2018-04-23T03:29:05.956Z,15.51
2018-04-23T03:31:34.284Z,15.49
2018-04-23T03:34:02.649Z,15.42
2018-04-23T03:36:31.041Z,15.42
2018-04-23T03:38:59.378Z,15.34
2018-04-23T03:41:27.709Z,15.31
2018-04-23T03:43:56.051Z,15.29
2018-04-23T03:46:24.384Z,15.29
2018-04-23T03:48:52.705Z,15.20
2018-04-23T03:51:21.032Z,15.27
2018-04-23T03:53:49.373Z,15.26
2018-04-23T03:56:18.211Z,15.21
2018-04-23T03:58:46.532Z,15.24
2018-04-23T04:01:14.874Z,15.25
2018-04-23T04:03:43.288Z,15.20
2018-04-23T04:06:11.626Z,15.19
2018-04-23T04:08:39.971Z,15.24
2018-04-23T04:11:08.316Z,15.25
2018-04-23T04:13:48.510Z,15.23
2018-04-23T04:16:28.601Z,15.31
2018-04-23T04:18:56.948Z,15.38
2018-04-23T04:21:25.300Z,15.38
2018-04-23T04:23:53.672Z,15.46
2018-04-23T04:26:22.003Z,15.70
2018-04-23T04:28:51.161Z,15.95
2018-04-23T04:31:19.501Z,16.11
2018-04-23T04:33:47.834Z,16.18
2018-04-23T04:36:16.281Z,16.19
2018-04-23T04:38:44.594Z,16.34
2018-04-23T04:41:12.921Z,16.42
2018-04-23T04:43:41.265Z,16.61
2018-04-23T04:46:10.034Z,16.67
2018-04-23T04:48:42.917Z,16.87
2018-04-23T04:51:11.250Z,17.03
2018-04-23T04:53:39.659Z,17.26
2018-04-23T04:56:07.995Z,17.45
2018-04-23T04:58:36.334Z,17.46
2018-04-23T05:01:04.660Z,17.71
2018-04-23T05:03:33.073Z,17.79
2018-04-23T05:06:01.404Z,17.70
2018-04-23T05:08:29.840Z,17.61
2018-04-23T05:10:58.185Z,17.74
2018-04-23T05:13:26.536Z,17.84
2018-04-23T05:15:54.856Z,17.94
2018-04-23T05:18:23.183Z,18.16
2018-04-23T05:20:51.633Z,18.41
2018-04-23T05:23:20.032Z,18.44
2018-04-23T05:25:48.433Z,18.65
2018-04-23T05:28:16.789Z,18.85
2018-04-23T05:30:45.372Z,18.95
2018-04-23T05:33:13.788Z,19.07
2018-04-23T05:35:42.116Z,19.17
2018-04-23T05:38:10.438Z,19.29
2018-04-23T05:40:38.823Z,19.45
2018-04-23T05:43:07.257Z,19.55
2018-04-23T05:45:35.601Z,19.67
2018-04-23T05:48:03.954Z,19.82
2018-04-23T05:50:32.287Z,19.90
2018-04-23T05:53:00.621Z,19.96
2018-04-23T05:55:29.002Z,20.42
2018-04-23T05:57:57.326Z,21.02
2018-04-23T06:00:25.663Z,21.91
2018-04-23T06:02:54.003Z,22.42
2018-04-23T06:05:22.370Z,23.66
2018-04-23T06:07:50.688Z,24.51
2018-04-23T06:10:19.025Z,25.39
2018-04-23T06:12:47.369Z,25.81
2018-04-23T06:15:15.707Z,25.40
2018-04-23T06:17:44.036Z,24.57
2018-04-23T06:20:12.375Z,24.00
2018-04-23T06:22:40.720Z,23.57
2018-04-23T06:25:09.088Z,23.74
2018-04-23T06:27:37.427Z,23.82
2018-04-23T06:30:05.760Z,24.01
2018-04-23T06:32:34.112Z,24.23
2018-04-23T06:35:02.446Z,24.35
2018-04-23T06:37:30.969Z,24.53
2018-04-23T06:39:59.329Z,24.06
2018-04-23T06:42:27.681Z,23.62
2018-04-23T06:44:56.031Z,23.64
2018-04-23T06:47:24.380Z,23.60
2018-04-23T06:49:52.807Z,23.03
2018-04-23T06:52:21.126Z,23.08
2018-04-23T06:54:49.485Z,22.75
2018-04-23T06:57:17.828Z,22.77
2018-04-23T06:59:46.139Z,22.70
2018-04-23T07:02:14.514Z,22.48
2018-04-23T07:04:42.916Z,22.62
2018-04-23T07:07:11.180Z,22.64
2018-04-23T07:09:39.517Z,22.85
2018-04-23T07:12:07.841Z,24.12
2018-04-23T07:14:36.153Z,25.30
2018-04-23T07:17:04.482Z,26.56
2018-04-23T07:19:32.797Z,26.65
2018-04-23T07:22:01.128Z,27.53
2018-04-23T07:24:29.473Z,27.27
2018-04-23T07:26:57.791Z,27.16
2018-04-23T07:29:26.141Z,26.36
2018-04-23T07:31:54.467Z,25.70
2018-04-23T07:34:22.780Z,25.70
2018-04-23T07:36:51.104Z,25.59
2018-04-23T07:39:19.444Z,25.00
2018-04-23T07:41:47.769Z,24.95
2018-04-23T07:44:16.144Z,24.46
2018-04-23T07:46:44.482Z,24.74
2018-04-23T07:49:12.782Z,24.35
2018-04-23T07:51:41.139Z,23.75
2018-04-23T07:54:09.557Z,23.70
2018-04-23T07:56:37.864Z,23.30
2018-04-23T07:59:06.191Z,23.40
2018-04-23T08:01:34.515Z,22.86
2018-04-23T08:04:02.850Z,22.73
2018-04-23T08:06:31.194Z,23.05
2018-04-23T08:08:59.572Z,22.88
2018-04-23T08:11:27.947Z,22.58
2018-04-23T08:13:56.292Z,22.68
2018-04-23T08:16:24.716Z,22.75
2018-04-23T08:18:53.093Z,23.05
2018-04-23T08:21:21.422Z,22.96
2018-04-23T08:23:49.772Z,23.08
2018-04-23T08:26:18.138Z,23.64
2018-04-23T08:28:46.525Z,24.28
2018-04-23T08:31:14.877Z,24.13
2018-04-23T08:33:43.244Z,23.98
2018-04-23T08:36:11.592Z,23.88
2018-04-23T08:38:39.989Z,24.23
2018-04-23T08:41:08.328Z,24.51
2018-04-23T08:43:36.671Z,24.70
2018-04-23T08:46:05.004Z,24.78
2018-04-23T08:48:33.359Z,24.62
2018-04-23T08:51:01.681Z,24.59
2018-04-23T08:53:30.033Z,24.49
2018-04-23T08:55:58.381Z,24.46
2018-04-23T08:58:26.707Z,24.52
2018-04-23T09:00:55.047Z,24.30
2018-04-23T09:03:23.404Z,24.03
2018-04-23T09:05:52.449Z,23.71
2018-04-23T09:08:20.819Z,23.78
2018-04-23T09:10:49.388Z,23.88
2018-04-23T09:13:18.227Z,24.23
2018-04-23T09:15:46.748Z,24.04
2018-04-23T09:18:15.071Z,23.74
2018-04-23T09:20:43.430Z,23.56
2018-04-23T09:23:11.772Z,23.55
2018-04-23T09:25:40.112Z,23.52
2018-04-23T09:28:10.518Z,23.22
2018-04-23T09:30:38.869Z,23.26
2018-04-23T09:33:07.199Z,23.40
2018-04-23T09:35:35.550Z,23.76
2018-04-23T09:38:03.887Z,23.39
2018-04-23T09:40:32.220Z,23.61
2018-04-23T09:43:00.552Z,23.74
2018-04-23T09:45:28.879Z,23.82
2018-04-23T09:47:57.224Z,23.84
2018-04-23T09:50:25.543Z,24.00
2018-04-23T09:52:53.891Z,23.73
2018-04-23T09:55:22.220Z,23.76
2018-04-23T09:57:50.565Z,23.94
2018-04-23T10:00:24.529Z,23.86
2018-04-23T10:02:52.977Z,24.33
2018-04-23T10:05:21.294Z,24.70
2018-04-23T10:07:49.647Z,24.90
2018-04-23T10:10:18.002Z,25.40
2018-04-23T10:12:46.347Z,25.27
2018-04-23T10:15:14.685Z,25.58
2018-04-23T10:17:45.746Z,25.77
2018-04-23T10:20:14.099Z,25.65
2018-04-23T10:22:42.416Z,26.03
2018-04-23T10:25:10.758Z,25.69
2018-04-23T10:27:39.102Z,25.00
2018-04-23T10:30:07.433Z,24.76
2018-04-23T10:32:35.763Z,24.21
2018-04-23T10:35:04.124Z,24.07
2018-04-23T10:37:32.457Z,23.80
2018-04-23T10:40:00.808Z,23.58
2018-04-23T10:42:29.141Z,23.79
2018-04-23T10:44:57.595Z,24.49
2018-04-23T10:47:25.924Z,24.86
2018-04-23T10:49:54.278Z,25.01
2018-04-23T10:52:22.605Z,25.11
2018-04-23T10:54:50.977Z,24.18
2018-04-23T10:57:19.301Z,23.72
2018-04-23T10:59:47.644Z,23.55
2018-04-23T11:02:15.987Z,23.17
2018-04-23T11:04:44.325Z,23.10
2018-04-23T11:07:12.663Z,23.44
2018-04-23T11:09:41.007Z,23.77
2018-04-23T11:12:09.326Z,23.86
2018-04-23T11:14:37.674Z,24.09
2018-04-23T11:17:06.014Z,24.19
2018-04-23T11:19:34.341Z,24.07
2018-04-23T11:22:02.685Z,24.03
2018-04-23T11:24:31.032Z,24.22
2018-04-23T11:26:59.380Z,24.08
2018-04-23T11:29:27.706Z,23.73
2018-04-23T11:31:56.044Z,23.60
2018-04-23T11:34:24.376Z,23.61
2018-04-23T11:36:52.703Z,23.20
2018-04-23T11:39:21.020Z,23.03
2018-04-23T11:41:49.379Z,22.74
2018-04-23T11:44:17.691Z,22.49
2018-04-23T11:46:46.033Z,22.29
2018-04-23T11:49:14.352Z,22.17
2018-04-23T11:51:42.671Z,22.05
2018-04-23T11:54:11.009Z,22.12
2018-04-23T11:56:39.354Z,22.03
2018-04-23T11:59:07.697Z,21.85
2018-04-23T12:01:36.013Z,21.74
2018-04-23T12:04:04.337Z,21.86
2018-04-23T12:06:32.701Z,21.80
2018-04-23T12:09:01.051Z,21.74
2018-04-23T12:11:29.369Z,21.77
2018-04-23T12:13:57.733Z,21.80
2018-04-23T12:16:26.045Z,21.82
2018-04-23T12:18:54.373Z,21.74
2018-04-23T12:21:22.696Z,21.95
2018-04-23T12:23:51.028Z,21.99
2018-04-23T12:26:19.365Z,21.98
2018-04-23T12:28:47.707Z,21.85
2018-04-23T12:31:16.071Z,22.01
2018-04-23T12:33:44.400Z,21.99
2018-04-23T12:36:12.776Z,22.02
2018-04-23T12:38:41.167Z,22.13
2018-04-23T12:41:09.490Z,22.43
2018-04-23T12:43:37.808Z,22.73
2018-04-23T12:46:06.245Z,22.72
2018-04-23T12:48:34.499Z,22.77
2018-04-23T12:51:03.830Z,22.63
2018-04-23T12:53:32.167Z,22.70
2018-04-23T12:56:00.572Z,22.97
2018-04-23T12:58:28.940Z,23.16
2018-04-23T13:00:57.259Z,23.32
2018-04-23T13:03:25.594Z,23.37
2018-04-23T13:05:53.955Z,23.41
2018-04-23T13:08:22.308Z,23.74
2018-04-23T13:10:50.656Z,24.17
2018-04-23T13:13:18.970Z,24.80
2018-04-23T13:15:47.303Z,25.92
2018-04-23T13:18:15.669Z,26.73
2018-04-23T13:20:43.999Z,26.82
2018-04-23T13:23:12.637Z,26.97
2018-04-23T13:25:41.339Z,27.64
2018-04-23T13:28:09.680Z,27.06
2018-04-23T13:30:38.033Z,26.04
2018-04-23T13:33:06.383Z,25.61
2018-04-23T13:35:34.720Z,25.42
2018-04-23T13:38:03.069Z,25.77
2018-04-23T13:40:31.413Z,26.35
2018-04-23T13:42:59.775Z,27.19
2018-04-23T13:45:28.117Z,27.76
2018-04-23T13:47:56.475Z,27.89
2018-04-23T13:50:24.832Z,27.15
2018-04-23T13:52:53.197Z,26.64
2018-04-23T13:55:21.540Z,26.57
2018-04-23T13:57:49.975Z,26.71
2018-04-23T14:00:18.366Z,26.37
2018-04-23T14:02:46.746Z,25.82
2018-04-23T14:05:15.111Z,25.34
2018-04-23T14:07:43.429Z,24.84
2018-04-23T14:10:11.804Z,24.48
2018-04-23T14:12:40.151Z,24.05
2018-04-23T14:15:08.485Z,24.12
2018-04-23T14:17:36.862Z,23.99
2018-04-23T14:20:05.199Z,23.91
2018-04-23T14:22:33.642Z,23.97
2018-04-23T14:25:02.030Z,24.15
2018-04-23T14:27:30.379Z,24.46
2018-04-23T14:29:58.769Z,24.28
2018-04-23T14:32:27.126Z,23.97
2018-04-23T14:34:55.470Z,24.07
2018-04-23T14:37:23.869Z,24.99
2018-04-23T14:39:52.210Z,25.94
2018-04-23T14:42:20.569Z,26.48
2018-04-23T14:44:48.931Z,26.49
2018-04-23T14:47:17.288Z,26.38
2018-04-23T14:49:45.621Z,26.35
2018-04-23T14:52:13.985Z,26.09
2018-04-23T14:54:42.343Z,26.76
2018-04-23T14:57:10.727Z,26.21
2018-04-23T14:59:39.558Z,25.65
2018-04-23T15:02:07.927Z,25.43
2018-04-23T15:04:36.262Z,23.33
2018-04-23T15:07:04.815Z,19.69
2018-04-23T15:09:33.196Z,18.15
2018-04-23T15:12:01.516Z,17.01
2018-04-23T15:14:34.890Z,16.38
2018-04-23T15:17:03.255Z,16.05
2018-04-23T15:19:31.599Z,15.81
2018-04-23T15:21:59.960Z,15.78
2018-04-23T15:24:28.351Z,15.81
2018-04-23T15:26:56.679Z,15.83
2018-04-23T15:29:25.015Z,15.88
2018-04-23T15:31:53.361Z,16.01
2018-04-23T15:34:21.796Z,16.15
2018-04-23T15:36:50.436Z,16.21
2018-04-23T15:39:18.779Z,16.21
2018-04-23T15:41:47.127Z,16.27
2018-04-23T15:44:15.464Z,16.39
2018-04-23T15:46:43.823Z,16.49
2018-04-23T15:49:12.188Z,16.37
2018-04-23T15:51:40.574Z,16.32
2018-04-23T15:54:11.740Z,16.32
2018-04-23T15:56:40.098Z,16.20
2018-04-23T15:59:08.444Z,16.24
2018-04-23T16:01:36.795Z,16.16
2018-04-23T16:04:05.155Z,16.12
2018-04-23T16:06:33.524Z,16.19
2018-04-23T16:09:01.905Z,16.15
2018-04-23T16:11:30.232Z,16.15
2018-04-23T16:13:58.644Z,16.22
2018-04-23T16:16:27.042Z,16.26
2018-04-23T16:18:55.413Z,16.44
2018-04-23T16:21:23.869Z,16.41
2018-04-23T16:23:52.266Z,16.45
2018-04-23T16:26:21.499Z,16.56
2018-04-23T16:28:49.836Z,16.67
2018-04-23T16:31:18.185Z,16.67
2018-04-23T16:33:46.519Z,16.68
2018-04-23T16:36:14.860Z,16.67
2018-04-23T16:38:43.197Z,16.68
2018-04-23T16:41:11.591Z,16.75
2018-04-23T16:43:39.959Z,16.82
2018-04-23T16:46:08.468Z,16.75
2018-04-23T16:48:36.828Z,16.74
2018-04-23T16:51:05.167Z,16.81
2018-04-23T16:53:33.569Z,16.77
2018-04-23T16:56:01.903Z,16.77
2018-04-23T16:58:30.286Z,16.83
2018-04-23T17:00:58.638Z,16.77
2018-04-23T17:03:27.009Z,16.79
2018-04-23T17:05:55.388Z,16.79
2018-04-23T17:08:23.787Z,16.76
2018-04-23T17:10:53.019Z,16.79
2018-04-23T17:13:21.417Z,16.82
2018-04-23T17:15:49.777Z,16.81
2018-04-23T17:18:18.854Z,16.76
2018-04-23T17:20:47.209Z,16.81
2018-04-23T17:23:15.643Z,16.84
2018-04-23T17:25:44.028Z,16.89
2018-04-23T17:28:12.554Z,16.90
2018-04-23T17:30:40.921Z,16.91
2018-04-23T17:33:09.273Z,16.98
2018-04-23T17:35:37.604Z,16.92
2018-04-23T17:38:06.066Z,16.93
2018-04-23T17:40:34.435Z,16.91
2018-04-23T17:43:02.824Z,16.90
2018-04-23T17:45:31.240Z,16.88
2018-04-23T17:47:59.597Z,16.89
2018-04-23T17:50:27.950Z,16.87
2018-04-23T17:52:56.286Z,16.88
2018-04-23T17:55:24.700Z,16.84
2018-04-23T17:57:53.081Z,16.78
2018-04-23T18:00:21.474Z,16.80
2018-04-23T18:02:50.602Z,16.78
2018-04-23T18:05:19.022Z,16.83
2018-04-23T18:07:47.418Z,16.85
2018-04-23T18:10:15.782Z,16.78
2018-04-23T18:12:44.263Z,16.69
2018-04-23T18:15:12.731Z,16.68
2018-04-23T18:17:41.136Z,16.63
2018-04-23T18:20:09.447Z,16.54
2018-04-23T18:22:37.799Z,16.54
2018-04-23T18:25:06.192Z,16.58
2018-04-23T18:27:34.550Z,16.68
2018-04-23T18:30:02.897Z,16.58
2018-04-23T18:32:31.288Z,16.57
2018-04-23T18:34:59.669Z,16.59
2018-04-23T18:37:27.991Z,16.59
2018-04-23T18:39:56.450Z,16.59
2018-04-23T18:42:24.840Z,16.48
2018-04-23T18:44:53.199Z,16.45
2018-04-23T18:47:22.037Z,16.41
2018-04-23T18:49:50.455Z,16.41
2018-04-23T18:52:18.820Z,16.35
2018-04-23T18:54:47.196Z,16.40
2018-04-23T18:57:15.587Z,16.36
2018-04-23T18:59:43.973Z,16.33
2018-04-23T19:02:12.355Z,16.36
2018-04-23T19:04:40.709Z,16.38
2018-04-23T19:07:09.074Z,16.39
2018-04-23T19:09:37.447Z,16.43
2018-04-23T19:12:06.368Z,16.44
2018-04-23T19:14:35.044Z,16.44
2018-04-23T19:17:03.514Z,16.50
2018-04-23T19:19:31.924Z,16.56
2018-04-23T19:22:00.388Z,16.52
2018-04-23T19:24:28.787Z,16.51
2018-04-23T19:26:57.144Z,16.53
2018-04-23T19:29:25.678Z,16.45
2018-04-23T19:31:54.004Z,16.38
2018-04-23T19:34:22.413Z,16.37
2018-04-23T19:36:51.188Z,16.35
2018-04-23T19:39:19.547Z,16.31
2018-04-23T19:41:48.085Z,16.31
2018-04-23T19:44:16.457Z,16.34
2018-04-23T19:46:44.845Z,16.34
2018-04-23T19:49:13.200Z,16.31
2018-04-23T19:51:41.615Z,16.29
2018-04-23T19:54:09.993Z,16.35
2018-04-23T19:56:38.605Z,16.27
2018-04-23T19:59:06.953Z,16.26
2018-04-23T20:01:35.431Z,16.22
2018-04-23T20:04:04.644Z,16.17
2018-04-23T20:06:33.037Z,16.06
2018-04-23T20:09:01.406Z,16.00
2018-04-23T20:11:29.778Z,15.94
2018-04-23T20:13:58.132Z,15.90
2018-04-23T20:16:26.524Z,15.87
2018-04-23T20:18:54.884Z,15.82
2018-04-23T20:21:23.219Z,15.77
2018-04-23T20:23:51.660Z,15.73
2018-04-23T20:26:20.037Z,15.77
2018-04-23T20:28:48.395Z,15.72
2018-04-23T20:33:50.881Z,15.59
2018-04-23T20:36:19.223Z,15.57
2018-04-23T20:38:47.567Z,15.55
2018-04-23T20:41:15.953Z,15.57
2018-04-23T20:43:44.324Z,15.53
2018-04-23T20:46:12.718Z,15.48
2018-04-23T20:48:41.113Z,15.40
2018-04-23T20:51:09.532Z,15.28
2018-04-23T20:53:37.894Z,15.30
2018-04-23T20:56:06.304Z,15.27
2018-04-23T20:58:34.676Z,15.23
2018-04-23T21:01:03.050Z,15.19
2018-04-23T21:03:53.814Z,15.16
2018-04-23T21:06:26.637Z,15.11
2018-04-23T21:08:55.024Z,15.07
2018-04-23T21:11:23.385Z,15.00
2018-04-23T21:13:51.808Z,14.91
2018-04-23T21:16:20.947Z,14.86
2018-04-23T21:18:49.373Z,14.75
2018-04-23T21:21:17.726Z,14.68
2018-04-23T21:23:46.107Z,14.63
2018-04-23T21:26:14.461Z,14.56
2018-04-23T21:28:42.934Z,14.50
2018-04-23T21:31:11.270Z,14.45
2018-04-23T21:33:39.718Z,14.37
2018-04-23T21:36:08.084Z,14.31
2018-04-23T21:38:36.446Z,14.24
2018-04-23T21:41:04.775Z,14.22
2018-04-23T21:43:33.197Z,14.15
2018-04-23T21:46:01.535Z,14.14
2018-04-23T21:48:29.908Z,14.06
2018-04-23T21:50:58.284Z,13.99
2018-04-23T21:53:26.677Z,13.96
2018-04-23T21:55:55.052Z,13.96
2018-04-23T21:58:23.801Z,13.95
2018-04-23T22:00:52.168Z,13.94
2018-04-23T22:03:20.536Z,13.92
2018-04-23T22:05:48.912Z,13.87
2018-04-23T22:08:17.294Z,13.80
2018-04-23T22:10:45.709Z,13.75
2018-04-23T22:13:14.080Z,13.66
2018-04-23T22:15:42.453Z,13.58
2018-04-23T22:18:10.821Z,13.56
2018-04-23T22:20:39.233Z,13.48
2018-04-23T22:23:07.556Z,13.40
2018-04-23T22:25:35.966Z,13.32
2018-04-23T22:28:04.329Z,13.25
2018-04-23T22:30:32.695Z,13.17
2018-04-23T22:33:01.050Z,13.09
2018-04-23T22:35:29.424Z,13.09
2018-04-23T22:37:57.879Z,13.05
2018-04-23T22:40:26.146Z,13.01
2018-04-23T22:42:54.518Z,12.96
2018-04-23T22:45:22.943Z,12.97
2018-04-23T22:47:51.287Z,12.91
2018-04-23T22:50:19.656Z,12.86
2018-04-23T22:52:48.074Z,12.77
2018-04-23T22:55:16.461Z,12.73
2018-04-23T22:57:45.678Z,12.70
2018-04-23T23:00:14.005Z,12.67
2018-04-23T23:02:42.508Z,12.64
2018-04-23T23:05:10.865Z,12.59
2018-04-23T23:07:48.450Z,12.51
2018-04-23T23:10:18.953Z,12.43
2018-04-23T23:12:49.031Z,12.41
2018-04-23T23:15:17.363Z,12.38
2018-04-23T23:17:45.721Z,12.32
2018-04-23T23:20:14.128Z,12.27
2018-04-23T23:22:42.506Z,12.22
2018-04-23T23:25:10.871Z,12.17
2018-04-23T23:27:39.272Z,12.12
2018-04-23T23:30:07.628Z,12.06
2018-04-23T23:32:36.039Z,12.07
2018-04-23T23:35:04.393Z,12.01
2018-04-23T23:37:32.764Z,11.97
2018-04-23T23:40:01.226Z,11.97
2018-04-23T23:42:29.563Z,11.96
2018-04-23T23:44:57.948Z,11.91
2018-04-23T23:47:26.295Z,11.86
2018-04-23T23:49:54.724Z,11.86
2018-04-23T23:52:23.099Z,11.82
2018-04-23T23:54:51.488Z,11.81
2018-04-23T23:57:19.844Z,11.81
2018-04-23T23:59:48.276Z,11.78
